Time;durP1;ratioP1;P1;durP2;ratioP2;P2;SDS_P1;SDS_P2;PMS_P1;PMS_P2;Temp;Humidity;BMP_temperature;BMP_pressure;BME280_temperature;BME280_humidity;BME280_pressure;Samples;Min_cycle;Max_cycle;Signal;HPM_P1;HPM_P2
2023/07/12 00:01:08;;;;;;;;;;;;;;;25.09;42.98;100370.56;4136227;28;20398;-67
2023/07/12 00:03:10;;;;;;;;;;;;;;;25.06;43.21;100369.19;4137610;28;20017;-66
2023/07/12 00:05:12;;;;;;;;;;;;;;;25.06;43.11;100369.19;4136220;28;20016;-67
2023/07/12 00:07:14;;;;;;;;;;;;;;;25.08;43.17;100372.50;4152228;28;20447;-67
2023/07/12 00:09:17;;;;;;;;;;;;;;;25.05;43.31;100372.22;4136127;28;20017;-67
2023/07/12 00:11:19;;;;;;;;;;;;;;;25.04;43.13;100376.94;4136471;28;20374;-66
2023/07/12 00:13:23;;;;;;;;;;;;;;;25.00;43.38;100367.59;4136128;28;20016;-68
2023/07/12 00:15:25;;;;;;;;;;;;;;;25.00;43.33;100373.94;4135753;28;20036;-66
2023/07/12 00:17:27;;;;;;;;;;;;;;;25.02;43.42;100378.34;4136758;28;20459;-69
2023/07/12 00:19:29;;;;;;;;;;;;;;;25.00;43.21;100379.44;4150756;28;20017;-67
2023/07/12 00:21:31;;;;;;;;;;;;;;;24.96;43.38;100374.78;4136676;28;20029;-67
2023/07/12 00:23:34;;;;;;;;;;;;;;;24.95;43.62;100368.44;4135691;28;20040;-67
2023/07/12 00:25:37;;;;;;;;;;;;;;;24.92;43.52;100366.22;4135908;28;20340;-68
2023/07/12 00:27:38;;;;;;;;;;;;;;;24.92;43.72;100366.22;4136380;28;20024;-67
2023/07/12 00:29:40;;;;;;;;;;;;;;;24.90;43.89;100353.81;4138376;28;19976;-68
2023/07/12 00:31:42;;;;;;;;;;;;;;;24.92;43.53;100354.34;4139313;28;20376;-67
2023/07/12 00:33:44;;;;;;;;;;;;;;;24.85;43.93;100346.38;4155168;28;20029;-68
2023/07/12 00:35:46;;;;;;;;;;;;;;;24.86;43.93;100348.03;4139694;28;20480;-67
2023/07/12 00:37:49;;;;;;;;;;;;;;;24.86;43.89;100341.66;4140341;28;20016;-66
2023/07/12 00:39:50;;;;;;;;;;;;;;;24.87;44.09;100341.38;4138201;28;19921;-66
2023/07/12 00:41:57;;;;;;;;;;;;;;;24.81;44.23;100335.06;4139251;28;19925;-68
2023/07/12 00:44:00;;;;;;;;;;;;;;;24.79;44.20;100328.97;4154653;28;20003;-66
2023/07/12 00:46:02;;;;;;;;;;;;;;;24.81;44.25;100328.69;4137438;28;20513;-67
2023/07/12 00:48:08;;;;;;;;;;;;;;;24.78;44.37;100320.97;4139355;28;20025;-66
2023/07/12 00:50:15;;;;;;;;;;;;;;;24.76;44.68;100320.44;4138575;28;20094;-68
2023/07/12 00:52:18;;;;;;;;;;;;;;;24.74;44.86;100300.56;4138070;28;20016;-67
2023/07/12 00:54:20;;;;;;;;;;;;;;;24.68;44.82;100290.66;4137895;28;20475;-67
2023/07/12 00:56:22;;;;;;;;;;;;;;;24.72;44.85;100289.81;4155111;28;20027;-67
2023/07/12 00:58:25;;;;;;;;;;;;;;;24.71;44.90;100287.34;4139776;28;20016;-68
2023/07/12 01:00:27;;;;;;;;;;;;;;;24.68;44.94;100279.63;4138139;28;20379;-67
2023/07/12 01:02:29;;;;;;;;;;;;;;;24.69;45.09;100275.75;4138749;28;20016;-67
2023/07/12 01:04:32;;;;;;;;;;;;;;;24.67;45.11;100255.88;4139306;28;20040;-66
2023/07/12 01:06:33;;;;;;;;;;;;;;;24.69;45.14;100261.94;4154325;28;20007;-67
2023/07/12 01:08:35;;;;;;;;;;;;;;;24.66;45.01;100254.22;4139170;28;19956;-69
2023/07/12 01:10:37;;;;;;;;;;;;;;;24.63;45.25;100244.56;4138178;28;20013;-68
2023/07/12 01:12:39;;;;;;;;;;;;;;;24.66;45.29;100240.44;4138702;28;20033;-68
2023/07/12 01:14:42;;;;;;;;;;;;;;;24.68;45.07;100243.72;4138693;28;20021;-66
2023/07/12 01:16:45;;;;;;;;;;;;;;;24.67;45.13;100237.38;4154111;28;20019;-67
2023/07/12 01:18:47;;;;;;;;;;;;;;;24.65;45.46;100231.28;4137599;28;20424;-67
2023/07/12 01:20:54;;;;;;;;;;;;;;;24.62;45.52;100232.72;4137585;28;19921;-69
2023/07/12 01:22:56;;;;;;;;;;;;;;;24.58;45.45;100223.31;4153364;28;20471;-66
2023/07/12 01:24:58;;;;;;;;;;;;;;;24.59;45.37;100215.84;4138464;28;20005;-67
2023/07/12 01:27:01;;;;;;;;;;;;;;;24.55;45.70;100214.75;4138352;28;20028;-67
2023/07/12 01:29:03;;;;;;;;;;;;;;;24.56;45.67;100211.72;4138982;28;20460;-68
2023/07/12 01:31:05;;;;;;;;;;;;;;;24.53;45.67;100212.28;4153909;28;20021;-69
2023/07/12 01:33:08;;;;;;;;;;;;;;;24.55;45.91;100209.25;4138506;28;20016;-66
2023/07/12 01:35:10;;;;;;;;;;;;;;;24.56;45.81;100202.59;4138637;28;20013;-68
2023/07/12 01:37:13;;;;;;;;;;;;;;;24.52;45.84;100190.50;4139035;28;20024;-69
2023/07/12 01:39:15;;;;;;;;;;;;;;;24.49;46.23;100189.09;4153129;28;20020;-68
2023/07/12 01:41:16;;;;;;;;;;;;;;;24.49;46.10;100182.78;4138214;28;19929;-66
2023/07/12 01:43:19;;;;;;;;;;;;;;;24.45;46.23;100177.81;4137750;28;20013;-67
2023/07/12 01:45:21;;;;;;;;;;;;;;;24.47;46.36;100169.25;4153437;28;20040;-67
2023/07/12 01:47:24;;;;;;;;;;;;;;;24.45;46.31;100164.03;4139095;28;20029;-67
2023/07/12 01:49:25;;;;;;;;;;;;;;;24.45;46.26;100154.88;4137894;28;20084;-67
2023/07/12 01:51:27;;;;;;;;;;;;;;;24.44;46.55;100159.59;4138428;28;20020;-67
2023/07/12 01:53:31;;;;;;;;;;;;;;;24.46;46.48;100162.88;4137525;28;20008;-67
2023/07/12 01:55:34;;;;;;;;;;;;;;;24.46;46.55;100153.78;4153748;28;20523;-67
2023/07/12 01:57:36;;;;;;;;;;;;;;;24.44;46.67;100154.06;4137827;28;19929;-68
2023/07/12 01:59:38;;;;;;;;;;;;;;;24.41;46.75;100154.66;4152545;28;20044;-67
2023/07/12 02:01:40;;;;;;;;;;;;;;;24.43;46.61;100155.19;4138645;28;19922;-69
2023/07/12 02:03:42;;;;;;;;;;;;;;;24.39;46.60;100148.59;4137956;28;20016;-66
2023/07/12 02:05:44;;;;;;;;;;;;;;;24.42;46.70;100144.41;4152293;28;20048;-66
2023/07/12 02:07:46;;;;;;;;;;;;;;;24.43;46.64;100141.38;4139088;28;20016;-67
2023/07/12 02:10:03;;;;;;;;;;;;;;;24.45;46.92;100132.81;4138019;28;20028;-67
2023/07/12 02:12:07;;;;;;;;;;;;;;;24.41;46.99;100124.28;4153087;28;20362;-67
2023/07/12 02:14:11;;;;;;;;;;;;;;;24.45;46.95;100121.78;4137360;28;20044;-67
2023/07/12 02:16:13;;;;;;;;;;;;;;;24.42;46.91;100123.19;4153403;28;20028;-67
2023/07/12 02:18:14;;;;;;;;;;;;;;;24.43;46.94;100119.28;4137195;28;20012;-67
2023/07/12 02:20:19;;;;;;;;;;;;;;;24.42;47.02;100109.38;4151435;28;20015;-68
2023/07/12 02:22:20;;;;;;;;;;;;;;;24.44;46.86;100109.09;4136478;28;19930;-68
2023/07/12 02:24:22;;;;;;;;;;;;;;;24.44;46.91;100106.34;4137104;28;19975;-68
2023/07/12 02:26:24;;;;;;;;;;;;;;;24.42;47.03;100100.25;4138251;28;20015;-67
2023/07/12 02:28:28;;;;;;;;;;;;;;;24.40;46.93;100100.53;4137701;28;20017;-67
2023/07/12 02:30:30;;;;;;;;;;;;;;;24.35;47.03;100100.59;4137380;28;20013;-66
2023/07/12 02:32:32;;;;;;;;;;;;;;;24.36;47.07;100098.66;4137319;28;20020;-67
2023/07/12 02:34:33;;;;;;;;;;;;;;;24.29;47.20;100088.78;4137791;28;20024;-67
2023/07/12 02:36:35;;;;;;;;;;;;;;;24.32;47.45;100083.78;4153082;28;20012;-69
2023/07/12 02:38:37;;;;;;;;;;;;;;;24.27;47.48;100087.41;4137928;28;20383;-66
2023/07/12 02:40:39;;;;;;;;;;;;;;;24.27;47.45;100088.22;4136968;28;20443;-67
2023/07/12 02:42:41;;;;;;;;;;;;;;;24.28;47.45;100073.31;4137475;28;19945;-67
2023/07/12 02:44:44;;;;;;;;;;;;;;;24.26;47.40;100078.31;4137288;28;20016;-68
2023/07/12 02:46:46;;;;;;;;;;;;;;;24.28;47.60;100070.56;4137518;28;20004;-67
2023/07/12 02:48:48;;;;;;;;;;;;;;;24.25;47.79;100065.59;4137791;28;20363;-67
2023/07/12 02:50:50;;;;;;;;;;;;;;;24.26;47.64;100060.91;4136143;28;20024;-68
2023/07/12 02:52:54;;;;;;;;;;;;;;;24.25;47.88;100071.13;4136807;28;20024;-69
2023/07/12 02:54:56;;;;;;;;;;;;;;;24.26;47.75;100060.91;4136098;28;20016;-67
2023/07/12 02:56:58;;;;;;;;;;;;;;;24.28;48.00;100078.03;4137495;28;20463;-68
2023/07/12 02:59:00;;;;;;;;;;;;;;;24.29;47.75;100076.88;4137640;28;20024;-67
2023/07/12 03:01:04;;;;;;;;;;;;;;;24.32;47.84;100086.53;4136680;28;20021;-67
2023/07/12 03:03:06;;;;;;;;;;;;;;;24.27;48.06;100095.66;4136943;28;19922;-68
2023/07/12 03:05:08;;;;;;;;;;;;;;;24.28;48.19;100091.81;4151725;28;19999;-67
2023/07/12 03:07:10;;;;;;;;;;;;;;;24.30;48.08;100095.09;4136932;28;20436;-69
2023/07/12 03:09:12;;;;;;;;;;;;;;;24.30;48.27;100097.88;4137709;28;20483;-67
2023/07/12 03:11:14;;;;;;;;;;;;;;;24.29;48.32;100099.81;4135514;28;20387;-67
2023/07/12 03:13:16;;;;;;;;;;;;;;;24.29;48.33;100093.44;4133663;28;20037;-67
2023/07/12 03:15:18;;;;;;;;;;;;;;;24.31;48.56;100087.63;4136393;28;20020;-68
2023/07/12 03:17:22;;;;;;;;;;;;;;;24.29;48.53;100085.16;4136915;28;20012;-68
2023/07/12 03:19:24;;;;;;;;;;;;;;;24.27;48.70;100101.19;4135416;28;20020;-70
2023/07/12 03:21:26;;;;;;;;;;;;;;;24.22;48.91;100084.69;4137271;28;20011;-67
2023/07/12 03:23:29;;;;;;;;;;;;;;;24.19;49.10;100090.75;4136812;28;20016;-68
2023/07/12 03:25:31;;;;;;;;;;;;;;;24.14;49.04;100077.81;4136119;28;20370;-67
2023/07/12 03:27:33;;;;;;;;;;;;;;;24.14;49.27;100076.97;4136250;28;20111;-68
2023/07/12 03:29:35;;;;;;;;;;;;;;;24.13;49.36;100073.41;4136055;28;20017;-67
2023/07/12 03:31:37;;;;;;;;;;;;;;;24.07;49.65;100074.53;4136820;28;20008;-68
2023/07/12 03:33:40;;;;;;;;;;;;;;;24.10;49.57;100083.06;4137049;28;20427;-68
2023/07/12 03:35:43;;;;;;;;;;;;;;;24.07;49.50;100072.59;4136215;28;20061;-67
2023/07/12 03:37:45;;;;;;;;;;;;;;;24.06;49.73;100070.94;4137253;28;20012;-67
2023/07/12 03:39:47;;;;;;;;;;;;;;;24.11;49.68;100084.72;4136382;28;20355;-68
2023/07/12 03:41:49;;;;;;;;;;;;;;;24.11;49.72;100079.19;4137060;28;20020;-68
2023/07/12 03:43:50;;;;;;;;;;;;;;;24.09;49.41;100075.06;4136452;28;19965;-68
2023/07/12 03:45:52;;;;;;;;;;;;;;;24.09;49.70;100069.53;4136674;28;20028;-67
2023/07/12 03:47:54;;;;;;;;;;;;;;;24.09;49.64;100073.16;4136838;28;20815;-68
2023/07/12 03:49:58;;;;;;;;;;;;;;;24.06;49.58;100076.47;4151626;28;20036;-67
2023/07/12 03:51:59;;;;;;;;;;;;;;;23.99;50.15;100075.13;4136403;28;20008;-67
2023/07/12 03:54:01;;;;;;;;;;;;;;;23.93;50.28;100075.16;4137528;28;20004;-67
2023/07/12 03:56:04;;;;;;;;;;;;;;;23.89;50.37;100063.03;4136435;28;20013;-67
2023/07/12 03:58:06;;;;;;;;;;;;;;;23.92;50.11;100058.88;4136268;28;20020;-67
2023/07/12 04:00:09;;;;;;;;;;;;;;;23.97;50.16;100066.31;4136234;28;20013;-67
2023/07/12 04:02:15;;;;;;;;;;;;;;;23.96;50.21;100075.69;4136587;28;20025;-67
2023/07/12 04:04:17;;;;;;;;;;;;;;;23.92;50.65;100072.69;4137662;28;20351;-67
2023/07/12 04:06:20;;;;;;;;;;;;;;;23.88;50.69;100075.16;4139917;28;20099;-68
2023/07/12 04:08:22;;;;;;;;;;;;;;;23.83;51.13;100066.06;4140133;28;20016;-68
2023/07/12 04:10:24;;;;;;;;;;;;;;;23.80;51.18;100064.69;4139679;28;20028;-68
2023/07/12 04:12:26;;;;;;;;;;;;;;;23.82;51.22;100067.97;4139952;28;20417;-69
2023/07/12 04:14:28;;;;;;;;;;;;;;;23.82;51.01;100061.66;4139372;28;20470;-68
2023/07/12 04:16:30;;;;;;;;;;;;;;;23.79;51.42;100053.94;4139943;28;20016;-68
2023/07/12 04:18:32;;;;;;;;;;;;;;;23.81;51.60;100058.06;4140315;28;20012;-67
2023/07/12 04:20:37;;;;;;;;;;;;;;;23.80;51.63;100059.19;4139008;28;20020;-67
2023/07/12 04:22:40;;;;;;;;;;;;;;;23.80;51.92;100058.34;4139369;28;20024;-67
2023/07/12 04:24:42;;;;;;;;;;;;;;;23.80;51.80;100059.19;4139656;28;19928;-67
2023/07/12 04:26:44;;;;;;;;;;;;;;;23.82;51.99;100054.19;4139154;28;20008;-67
2023/07/12 04:28:49;;;;;;;;;;;;;;;23.84;52.10;100059.47;4140002;28;20471;-68
2023/07/12 04:30:51;;;;;;;;;;;;;;;23.84;52.21;100062.22;4138500;28;20032;-67
2023/07/12 04:32:52;;;;;;;;;;;;;;;23.85;52.13;100063.88;4139511;28;20024;-67
2023/07/12 04:34:54;;;;;;;;;;;;;;;23.86;52.38;100062.78;4139329;28;20024;-67
2023/07/12 04:36:56;;;;;;;;;;;;;;;23.85;52.39;100056.41;4139365;28;20012;-67
2023/07/12 04:38:59;;;;;;;;;;;;;;;23.86;52.40;100062.78;4139333;28;20008;-67
2023/07/12 04:41:01;;;;;;;;;;;;;;;23.87;52.43;100068.00;4153307;28;20047;-68
2023/07/12 04:43:03;;;;;;;;;;;;;;;23.89;52.58;100060.28;4138941;28;20338;-68
2023/07/12 04:45:04;;;;;;;;;;;;;;;23.89;52.74;100071.31;4139148;28;19930;-68
2023/07/12 04:47:07;;;;;;;;;;;;;;;23.88;52.54;100064.13;4138777;28;20004;-68
2023/07/12 04:49:09;;;;;;;;;;;;;;;23.89;53.11;100071.31;4139371;28;20440;-70
2023/07/12 04:51:11;;;;;;;;;;;;;;;23.90;52.90;100075.72;4138317;28;20474;-69
2023/07/12 04:53:13;;;;;;;;;;;;;;;23.90;53.04;100078.47;4139060;28;20024;-69
2023/07/12 04:55:26;;;;;;;;;;;;;;;23.91;53.19;100096.66;4139375;28;20522;-69
2023/07/12 04:57:28;;;;;;;;;;;;;;;23.90;53.38;100094.19;4139696;28;20634;-68
2023/07/12 04:59:30;;;;;;;;;;;;;;;23.90;53.58;100095.03;4130131;28;20371;-67
2023/07/12 05:01:32;;;;;;;;;;;;;;;23.90;53.44;100099.69;4151663;28;20019;-67
2023/07/12 05:03:34;;;;;;;;;;;;;;;23.92;53.90;100092.81;4139392;28;20017;-66
2023/07/12 05:05:38;;;;;;;;;;;;;;;23.92;53.74;100097.50;4138339;28;19926;-67
2023/07/12 05:07:39;;;;;;;;;;;;;;;23.95;53.95;100085.06;4139137;28;20024;-67
2023/07/12 05:09:41;;;;;;;;;;;;;;;23.96;53.68;100097.75;4137251;28;20046;-66
2023/07/12 05:11:44;;;;;;;;;;;;;;;23.94;54.15;100100.78;4139343;28;20000;-67
2023/07/12 05:13:46;;;;;;;;;;;;;;;23.91;54.29;100096.66;4138894;28;20372;-67
2023/07/12 05:15:50;;;;;;;;;;;;;;;23.92;54.13;100092.00;4137766;28;20010;-67
2023/07/12 05:17:52;;;;;;;;;;;;;;;23.92;54.74;100083.72;4138852;28;20004;-67
2023/07/12 05:19:54;;;;;;;;;;;;;;;23.93;55.00;100088.09;4137546;28;20020;-68
2023/07/12 05:21:56;;;;;;;;;;;;;;;23.92;55.04;100090.03;4139501;28;20024;-68
2023/07/12 05:23:58;;;;;;;;;;;;;;;23.93;55.42;100096.38;4138025;28;20013;-68
2023/07/12 05:26:00;;;;;;;;;;;;;;;23.93;55.69;100099.13;4138109;28;19941;-68
2023/07/12 05:28:03;;;;;;;;;;;;;;;23.95;55.52;100102.44;4137364;28;20012;-69
2023/07/12 05:30:06;;;;;;;;;;;;;;;23.98;55.74;100110.16;4137726;28;20009;-67
2023/07/12 05:32:08;;;;;;;;;;;;;;;23.98;56.10;100110.16;4138949;28;20029;-69
2023/07/12 05:34:10;;;;;;;;;;;;;;;23.99;56.19;100110.97;4138367;28;20012;-69
2023/07/12 05:36:12;;;;;;;;;;;;;;;24.00;56.82;100116.22;4137694;28;20028;-69
2023/07/12 05:38:14;;;;;;;;;;;;;;;24.02;56.58;100118.69;4139104;28;20009;-68
2023/07/12 05:40:16;;;;;;;;;;;;;;;24.04;56.64;100121.97;4137626;28;20035;-71
2023/07/12 05:42:19;;;;;;;;;;;;;;;24.05;57.04;100135.50;4138456;28;20017;-67
2023/07/12 05:44:22;;;;;;;;;;;;;;;24.08;57.06;100139.63;4138127;28;20451;-68
2023/07/12 05:46:24;;;;;;;;;;;;;;;24.09;57.42;100144.88;4137435;28;21481;-68
2023/07/12 05:48:26;;;;;;;;;;;;;;;24.13;57.38;100145.13;4138156;28;20016;-68
2023/07/12 05:50:28;;;;;;;;;;;;;;;24.15;57.53;100147.59;4137760;28;20005;-69
2023/07/12 05:52:30;;;;;;;;;;;;;;;24.18;57.20;100149.78;4138306;28;20584;-68
2023/07/12 05:54:32;;;;;;;;;;;;;;;24.19;57.94;100144.00;4138003;28;20040;-68
2023/07/12 05:56:34;;;;;;;;;;;;;;;24.23;57.46;100153.38;4138282;28;20581;-67
2023/07/12 05:58:36;;;;;;;;;;;;;;;24.27;57.21;100159.13;4136830;28;20020;-67
2023/07/12 06:00:40;;;;;;;;;;;;;;;24.29;57.38;100155.00;4136559;28;20027;-67
2023/07/12 06:02:41;;;;;;;;;;;;;;;24.32;57.44;100161.88;4136729;28;20024;-67
2023/07/12 06:04:43;;;;;;;;;;;;;;;24.37;57.32;100170.09;4135753;28;20016;-68
2023/07/12 06:06:45;;;;;;;;;;;;;;;24.38;57.58;100166.25;4135704;28;20021;-69
2023/07/12 06:08:47;;;;;;;;;;;;;;;24.41;57.55;100171.19;4136768;28;20470;-69
2023/07/12 06:10:49;;;;;;;;;;;;;;;24.44;57.59;100173.41;4135952;28;20004;-69
2023/07/12 06:12:51;;;;;;;;;;;;;;;24.46;57.95;100167.59;4136152;28;20025;-70
2023/07/12 06:14:53;;;;;;;;;;;;;;;24.49;57.84;100172.56;4136365;28;20045;-69
2023/07/12 06:16:57;;;;;;;;;;;;;;;24.53;57.27;100181.06;4136879;28;20009;-68
2023/07/12 06:18:59;;;;;;;;;;;;;;;24.54;57.57;100179.97;4136552;28;20024;-68
2023/07/12 06:21:01;;;;;;;;;;;;;;;24.56;57.60;100186.03;4136416;28;20021;-68
2023/07/12 06:23:03;;;;;;;;;;;;;;;24.61;57.81;100189.63;4138262;28;20016;-68
2023/07/12 06:25:05;;;;;;;;;;;;;;;24.64;57.72;100186.31;4137441;28;20016;-68
2023/07/12 06:27:07;;;;;;;;;;;;;;;24.68;57.66;100185.75;4137187;28;20107;-67
2023/07/12 06:29:09;;;;;;;;;;;;;;;24.72;57.48;100197.84;4138128;28;20004;-67
2023/07/12 06:31:11;;;;;;;;;;;;;;;24.78;57.04;100193.94;4137093;28;20131;-67
2023/07/12 06:33:15;;;;;;;;;;;;;;;24.82;57.20;100184.81;4137880;28;20191;-68
2023/07/12 06:35:17;;;;;;;;;;;;;;;24.89;57.02;100189.19;4137431;28;20462;-68
2023/07/12 06:37:19;;;;;;;;;;;;;;;24.92;56.54;100188.63;4136711;28;19989;-68
2023/07/12 06:39:20;;;;;;;;;;;;;;;24.97;56.35;100192.19;4137731;28;20031;-67
2023/07/12 06:41:22;;;;;;;;;;;;;;;25.07;55.83;100195.97;4136205;28;20028;-67
2023/07/12 06:43:24;;;;;;;;;;;;;;;25.14;55.44;100186.25;4134438;28;20459;-67
2023/07/12 06:45:26;;;;;;;;;;;;;;;25.18;55.51;100184.53;4136094;28;20064;-67
2023/07/12 06:47:31;;;;;;;;;;;;;;;25.25;55.40;100177.88;4136535;28;19963;-67
2023/07/12 06:49:34;;;;;;;;;;;;;;;25.31;55.66;100193.31;4136223;28;20514;-67
2023/07/12 06:51:37;;;;;;;;;;;;;;;25.37;55.06;100175.59;4136587;28;20032;-70
2023/07/12 06:53:39;;;;;;;;;;;;;;;25.46;55.29;100184.09;4136963;28;20127;-67
2023/07/12 06:55:44;;;;;;;;;;;;;;;25.54;55.29;100187.03;4136254;28;20357;-67
2023/07/12 06:57:46;;;;;;;;;;;;;;;25.57;55.38;100176.53;4137008;28;20020;-68
2023/07/12 06:59:48;;;;;;;;;;;;;;;25.61;54.68;100180.34;4136567;28;20032;-67
2023/07/12 07:01:50;;;;;;;;;;;;;;;25.64;54.78;100185.28;4137034;28;20012;-69
2023/07/12 07:03:52;;;;;;;;;;;;;;;25.67;54.69;100201.31;4136698;28;20015;-68
2023/07/12 07:05:56;;;;;;;;;;;;;;;25.71;54.43;100196.84;4136842;28;20009;-69
2023/07/12 07:07:58;;;;;;;;;;;;;;;25.82;53.98;100225.22;4136313;28;20016;-67
2023/07/12 07:10:00;;;;;;;;;;;;;;;25.86;54.57;100198.63;4136786;28;20004;-67
2023/07/12 07:12:02;;;;;;;;;;;;;;;25.93;54.35;100212.13;4137591;28;20021;-67
2023/07/12 07:14:04;;;;;;;;;;;;;;;25.96;53.83;100206.00;4136837;28;20016;-68
2023/07/12 07:16:06;;;;;;;;;;;;;;;25.99;53.58;100222.06;4135456;28;20029;-67
2023/07/12 07:18:09;;;;;;;;;;;;;;;26.04;53.58;100208.97;4137473;28;20435;-67
2023/07/12 07:20:11;;;;;;;;;;;;;;;26.05;53.46;100224.47;4136459;28;20025;-68
2023/07/12 07:22:15;;;;;;;;;;;;;;;26.12;53.86;100234.34;4136620;28;20025;-68
2023/07/12 07:24:17;;;;;;;;;;;;;;;26.13;53.75;100249.81;4136450;28;20044;-69
2023/07/12 07:26:19;;;;;;;;;;;;;;;26.14;53.44;100241.22;4136361;28;20005;-69
2023/07/12 07:28:21;;;;;;;;;;;;;;;26.12;53.48;100232.41;4136966;28;20031;-67
2023/07/12 07:30:23;;;;;;;;;;;;;;;26.14;53.54;100240.41;4136154;28;20008;-68
2023/07/12 07:32:24;;;;;;;;;;;;;;;26.17;53.27;100250.91;4136556;28;20340;-68
2023/07/12 07:34:26;;;;;;;;;;;;;;;26.17;53.51;100240.66;4137476;28;19932;-67
2023/07/12 07:36:28;;;;;;;;;;;;;;;26.17;53.16;100254.47;4136276;28;20356;-68
2023/07/12 07:38:30;;;;;;;;;;;;;;;26.19;53.51;100245.88;4135322;28;20096;-67
2023/07/12 07:40:32;;;;;;;;;;;;;;;26.18;53.42;100245.06;4136324;28;20008;-68
2023/07/12 07:42:34;;;;;;;;;;;;;;;26.19;53.47;100246.72;4136518;28;20004;-68
2023/07/12 07:44:37;;;;;;;;;;;;;;;26.18;53.35;100250.59;4137531;28;20377;-68
2023/07/12 07:46:39;;;;;;;;;;;;;;;26.19;53.08;100255.03;4136823;28;20016;-68
2023/07/12 07:48:41;;;;;;;;;;;;;;;26.21;53.00;100263.84;4136405;28;19941;-68
2023/07/12 07:50:43;;;;;;;;;;;;;;;26.22;53.33;100273.81;4136541;28;20016;-68
2023/07/12 07:52:45;;;;;;;;;;;;;;;26.22;52.94;100261.91;4136250;28;20435;-67
2023/07/12 07:54:49;;;;;;;;;;;;;;;26.22;52.88;100264.66;4150883;28;20466;-68
2023/07/12 07:56:51;;;;;;;;;;;;;;;26.21;53.28;100277.69;4136694;28;20024;-69
2023/07/12 07:58:53;;;;;;;;;;;;;;;26.20;53.24;100276.03;4135978;28;20689;-69
2023/07/12 08:00:55;;;;;;;;;;;;;;;26.21;52.96;100271.34;4135629;28;19989;-70
2023/07/12 08:02:57;;;;;;;;;;;;;;;26.20;52.81;100280.75;4136867;28;20437;-69
2023/07/12 08:04:59;;;;;;;;;;;;;;;26.20;53.00;100278.00;4135818;28;20370;-69
2023/07/12 08:07:02;;;;;;;;;;;;;;;26.23;52.76;100291.25;4136515;28;20506;-69
2023/07/12 08:09:05;;;;;;;;;;;;;;;26.24;52.77;100292.91;4136568;28;19952;-69
2023/07/12 08:11:09;;;;;;;;;;;;;;;26.22;52.36;100290.44;4135766;28;20021;-70
2023/07/12 08:13:12;;;;;;;;;;;;;;;26.23;52.55;100288.47;4135834;28;20553;-70
2023/07/12 08:15:13;;;;;;;;;;;;;;;26.19;52.38;100293.78;4134961;28;20020;-70
2023/07/12 08:17:15;;;;;;;;;;;;;;;26.19;52.34;100299.31;4134057;28;20021;-70
2023/07/12 08:19:17;;;;;;;;;;;;;;;26.16;52.79;100302.66;4134691;28;20020;-70
2023/07/12 08:21:19;;;;;;;;;;;;;;;26.16;52.89;100312.88;4134769;28;20455;-71
2023/07/12 08:23:21;;;;;;;;;;;;;;;26.15;52.53;100300.19;4135999;28;20352;-70
2023/07/12 08:25:23;;;;;;;;;;;;;;;26.17;52.40;100309.84;4135157;28;20016;-69
2023/07/12 08:27:27;;;;;;;;;;;;;;;26.17;52.33;100311.78;4135872;28;20366;-70
2023/07/12 08:29:29;;;;;;;;;;;;;;;26.17;52.71;100325.63;4134429;28;19926;-69
2023/07/12 08:31:31;;;;;;;;;;;;;;;26.18;52.51;100321.75;4134833;28;20048;-69
2023/07/12 08:33:33;;;;;;;;;;;;;;;26.18;52.15;100328.09;4135175;28;20032;-68
2023/07/12 08:35:35;;;;;;;;;;;;;;;26.18;52.10;100314.25;4135927;28;20102;-69
2023/07/12 08:37:37;;;;;;;;;;;;;;;26.19;52.21;100317.84;4136224;28;20522;-70
2023/07/12 08:39:39;;;;;;;;;;;;;;;26.22;51.87;100314.50;4135455;28;20628;-70
2023/07/12 08:41:41;;;;;;;;;;;;;;;26.21;52.17;100315.63;4136141;28;20020;-70
2023/07/12 08:43:44;;;;;;;;;;;;;;;26.21;52.11;100310.09;4135895;28;19956;-70
2023/07/12 08:45:46;;;;;;;;;;;;;;;26.22;52.17;100317.25;4136171;28;20363;-70
2023/07/12 08:47:49;;;;;;;;;;;;;;;26.21;51.80;100312.84;4136447;28;20419;-70
2023/07/12 08:49:51;;;;;;;;;;;;;;;26.20;52.04;100325.84;4136948;28;19964;-69
2023/07/12 08:51:55;;;;;;;;;;;;;;;26.18;52.22;100325.31;4138910;28;20358;-69
2023/07/12 08:54:02;;;;;;;;;;;;;;;26.18;52.29;100330.06;4139202;28;20027;-69
2023/07/12 08:56:18;;;;;;;;;;;;;;;26.16;52.59;100335.03;4138379;28;20020;-71
2023/07/12 08:58:22;;;;;;;;;;;;;;;26.15;52.46;100334.22;4139623;28;20025;-70
2023/07/12 09:00:34;;;;;;;;;;;;;;;26.16;52.31;100341.41;4138618;28;20009;-69
2023/07/12 09:02:37;;;;;;;;;;;;;;;26.16;52.21;100335.88;4139320;28;20025;-70
2023/07/12 09:04:41;;;;;;;;;;;;;;;26.16;52.17;100324.81;4138411;28;20025;-70
2023/07/12 09:06:43;;;;;;;;;;;;;;;26.16;51.87;100321.19;4137658;28;20269;-70
2023/07/12 09:08:47;;;;;;;;;;;;;;;26.14;52.07;100326.19;4138695;28;20024;-71
2023/07/12 09:10:50;;;;;;;;;;;;;;;26.12;52.07;100340.34;4138437;28;20395;-69
2023/07/12 09:12:52;;;;;;;;;;;;;;;26.10;51.83;100330.66;4138951;28;20012;-70
2023/07/12 09:14:55;;;;;;;;;;;;;;;26.06;52.16;100325.69;4138498;28;20024;-69
2023/07/12 09:16:58;;;;;;;;;;;;;;;26.08;52.09;100344.78;4139280;28;20012;-70
2023/07/12 09:19:10;;;;;;;;;;;;;;;26.07;52.02;100343.97;4137842;28;20352;-69
2023/07/12 09:21:24;;;;;;;;;;;;;;;26.08;52.16;100345.63;4133851;28;20024;-69
2023/07/12 09:23:30;;;;;;;;;;;;;;;26.10;51.81;100353.66;4134300;28;20029;-70
2023/07/12 09:25:37;;;;;;;;;;;;;;;26.10;52.14;100356.41;4137656;28;20013;-71
2023/07/12 09:27:49;;;;;;;;;;;;;;;26.12;52.10;100362.47;4138346;28;20004;-70
2023/07/12 09:29:58;;;;;;;;;;;;;;;26.16;52.01;100369.09;4134628;28;20664;-70
2023/07/12 09:32:10;;;;;;;;;;;;;;;26.17;51.65;100356.06;4136951;28;20021;-70
2023/07/12 09:34:19;;;;;;;;;;;;;;;26.19;51.59;100362.13;4136830;28;20459;-70
2023/07/12 09:36:28;;;;;;;;;;;;;;;26.19;51.57;100354.66;4133013;28;20008;-70
2023/07/12 09:38:30;;;;;;;;;;;;;;;26.20;52.00;100356.31;4134219;28;20035;-70
2023/07/12 09:40:44;;;;;;;;;;;;;;;26.22;51.96;100361.53;4131357;28;20339;-69
2023/07/12 09:42:48;;;;;;;;;;;;;;;26.23;51.70;100357.66;4137224;28;20025;-70
2023/07/12 09:44:50;;;;;;;;;;;;;;;26.22;51.91;100351.31;4137603;28;20028;-71
2023/07/12 09:46:59;;;;;;;;;;;;;;;26.23;52.02;100354.91;4137160;28;20009;-70
2023/07/12 09:49:04;;;;;;;;;;;;;;;26.24;51.90;100351.03;4136087;28;20419;-70
2023/07/12 09:51:24;;;;;;;;;;;;;;;26.24;51.80;100351.84;4136155;28;22163;-70
2023/07/12 09:53:33;;;;;;;;;;;;;;;26.26;51.65;100363.44;4136668;28;19967;-69
2023/07/12 09:55:36;;;;;;;;;;;;;;;26.29;51.55;100364.00;4138019;28;20000;-69
2023/07/12 09:57:39;;;;;;;;;;;;;;;26.31;51.37;100364.50;4137828;28;20556;-69
2023/07/12 09:59:46;;;;;;;;;;;;;;;26.32;51.26;100374.47;4137632;28;20008;-68
2023/07/12 10:01:50;;;;;;;;;;;;;;;26.36;51.21;100379.13;4137320;28;20015;-68
2023/07/12 10:03:54;;;;;;;;;;;;;;;26.36;51.54;100376.34;4137433;28;20020;-68
2023/07/12 10:05:58;;;;;;;;;;;;;;;26.38;51.24;100379.66;4136447;28;20015;-69
2023/07/12 10:08:01;;;;;;;;;;;;;;;26.39;51.39;100388.78;4136656;28;20391;-69
2023/07/12 10:10:02;;;;;;;;;;;;;;;26.46;50.98;100391.22;4137094;28;20743;-69
2023/07/12 10:12:07;;;;;;;;;;;;;;;26.44;51.37;100391.50;4138033;28;20352;-69
2023/07/12 10:14:09;;;;;;;;;;;;;;;26.44;51.46;100392.34;4137579;28;20012;-70
2023/07/12 10:16:14;;;;;;;;;;;;;;;26.43;51.20;100401.75;4136946;28;20732;-68
2023/07/12 10:18:17;;;;;;;;;;;;;;;26.44;51.47;100400.66;4137174;28;20089;-67
2023/07/12 10:20:20;;;;;;;;;;;;;;;26.46;51.10;100408.66;4136349;28;20021;-68
2023/07/12 10:22:25;;;;;;;;;;;;;;;26.49;51.08;100416.41;4137722;28;20009;-68
2023/07/12 10:24:32;;;;;;;;;;;;;;;26.51;50.83;100405.84;4137163;28;20025;-68
2023/07/12 10:26:35;;;;;;;;;;;;;;;26.50;51.41;100412.50;4136885;28;20028;-68
2023/07/12 10:28:41;;;;;;;;;;;;;;;26.52;50.87;100412.19;4137609;28;20016;-68
2023/07/12 10:30:44;;;;;;;;;;;;;;;26.53;50.84;100411.09;4135382;28;20041;-69